createdAt,value
2022-11-18T00:00:23.593Z,8.93
2022-11-18T00:03:27.877Z,10.02
2022-11-18T00:06:30.823Z,12.07
2022-11-18T00:09:32.912Z,8.00
2022-11-18T00:12:53.607Z,9.25
2022-11-18T00:16:06.405Z,11.20
2022-11-18T00:19:08.583Z,9.07
2022-11-18T00:22:13.357Z,10.15
2022-11-18T00:25:15.493Z,9.43
2022-11-18T00:28:17.557Z,15.85
2022-11-18T00:31:20.812Z,8.43
2022-11-18T00:34:24.035Z,12.20
2022-11-18T00:37:26.097Z,10.65
2022-11-18T00:40:28.257Z,9.80
2022-11-18T00:43:31.020Z,10.57
2022-11-18T00:46:33.185Z,12.20
2022-11-18T00:49:35.190Z,10.35
2022-11-18T00:52:37.353Z,8.50
2022-11-18T00:55:39.403Z,9.50
2022-11-18T00:58:41.461Z,13.52
2022-11-18T01:01:43.631Z,8.40
2022-11-18T01:04:45.713Z,10.45
2022-11-18T01:07:48.011Z,15.63
2022-11-18T01:10:50.971Z,14.02
2022-11-18T01:13:54.469Z,13.85
2022-11-18T01:16:57.163Z,11.10
2022-11-18T01:20:00.098Z,11.18
2022-11-18T01:23:02.382Z,10.77
2022-11-18T01:26:07.035Z,10.73
2022-11-18T01:29:09.449Z,9.32
2022-11-18T01:32:25.806Z,9.88
2022-11-18T01:35:28.094Z,11.50
2022-11-18T01:38:31.023Z,9.13
2022-11-18T01:41:33.399Z,11.15
2022-11-18T01:44:58.259Z,11.85
2022-11-18T01:48:09.846Z,8.93
2022-11-18T01:51:19.571Z,11.18
2022-11-18T01:54:31.458Z,11.20
2022-11-18T01:57:34.110Z,13.18
2022-11-18T02:00:37.010Z,13.23
2022-11-18T02:03:39.104Z,10.30
2022-11-18T02:06:42.894Z,11.25
2022-11-18T02:09:46.362Z,8.63
2022-11-18T02:12:50.859Z,10.43
2022-11-18T02:16:03.153Z,12.93
2022-11-18T02:19:15.379Z,12.38
2022-11-18T02:22:23.523Z,10.20
2022-11-18T02:25:34.479Z,11.75
2022-11-18T02:28:59.155Z,9.50
2022-11-18T02:32:38.822Z,10.45
2022-11-18T02:36:02.239Z,8.93
2022-11-18T02:39:16.785Z,10.98
2022-11-18T02:42:19.956Z,15.38
2022-11-18T02:45:23.051Z,11.55
2022-11-18T02:48:29.144Z,11.25
2022-11-18T02:51:33.175Z,9.77
2022-11-18T02:54:38.603Z,12.68
2022-11-18T02:57:44.095Z,15.73
2022-11-18T03:00:57.340Z,11.25
2022-11-18T03:03:59.813Z,11.18
2022-11-18T03:07:30.176Z,14.05
2022-11-18T03:10:40.602Z,13.50
2022-11-18T03:14:16.222Z,11.10
2022-11-18T03:17:26.584Z,12.35
2022-11-18T03:20:34.082Z,15.15
2022-11-18T03:23:43.197Z,11.45
2022-11-18T03:26:51.237Z,10.73
2022-11-18T03:30:01.698Z,9.77
2022-11-18T03:33:17.300Z,11.38
2022-11-18T03:36:23.644Z,14.73
2022-11-18T03:39:28.711Z,11.98
2022-11-18T03:42:45.463Z,13.35
2022-11-18T03:45:51.013Z,12.45
2022-11-18T03:48:59.209Z,11.75
2022-11-18T03:52:10.770Z,11.77
2022-11-18T03:55:18.225Z,10.00
2022-11-18T03:58:27.039Z,13.43
2022-11-18T04:01:44.265Z,19.55
2022-11-18T04:04:49.478Z,17.50
2022-11-18T04:07:59.179Z,11.55
2022-11-18T04:11:37.209Z,15.73
2022-11-18T04:14:42.413Z,10.45
2022-11-18T04:17:44.595Z,21.38
2022-11-18T04:20:46.731Z,14.52
2022-11-18T04:23:48.691Z,11.38
2022-11-18T04:26:50.708Z,12.43
2022-11-18T04:29:52.955Z,10.88
2022-11-18T04:32:55.054Z,10.93
2022-11-18T04:35:57.222Z,13.82
2022-11-18T04:38:59.392Z,11.10
2022-11-18T04:42:01.556Z,11.52
2022-11-18T04:45:04.102Z,10.27
2022-11-18T04:48:06.712Z,15.43
2022-11-18T04:51:10.127Z,14.73
2022-11-18T04:54:16.247Z,13.88
2022-11-18T04:57:18.492Z,14.43
2022-11-18T05:00:22.630Z,11.20
2022-11-18T05:03:24.747Z,12.23
2022-11-18T05:06:26.990Z,12.43
2022-11-18T05:09:31.993Z,14.18
2022-11-18T05:12:49.988Z,14.98
2022-11-18T05:15:52.325Z,16.83
2022-11-18T05:18:55.490Z,13.35
2022-11-18T05:21:58.435Z,24.50
2022-11-18T05:25:00.995Z,16.67
2022-11-18T05:28:03.588Z,16.27
2022-11-18T05:31:10.260Z,15.75
2022-11-18T05:34:13.465Z,15.95
2022-11-18T05:37:15.728Z,13.80
2022-11-18T05:40:18.011Z,16.90
2022-11-18T05:43:20.115Z,14.77
2022-11-18T05:46:22.160Z,20.02
2022-11-18T05:49:25.316Z,14.18
2022-11-18T05:52:28.400Z,14.30
2022-11-18T05:55:38.807Z,12.35
2022-11-18T05:58:40.854Z,14.23
2022-11-18T06:02:08.541Z,13.02
2022-11-18T06:05:12.463Z,16.20
2022-11-18T06:08:17.368Z,11.82
2022-11-18T06:11:21.341Z,13.82
2022-11-18T06:14:31.088Z,12.10
2022-11-18T06:17:46.068Z,25.13
2022-11-18T06:20:48.265Z,11.82
2022-11-18T06:23:50.704Z,17.00
2022-11-18T06:26:53.431Z,18.15
2022-11-18T06:29:56.269Z,17.67
2022-11-18T06:32:58.511Z,16.60
2022-11-18T06:36:00.577Z,15.57
2022-11-18T06:39:06.261Z,18.20
2022-11-18T06:42:08.284Z,15.90
2022-11-18T06:45:11.983Z,25.60
2022-11-18T06:48:14.141Z,15.63
2022-11-18T06:51:17.237Z,21.23
2022-11-18T06:54:20.396Z,16.52
2022-11-18T06:57:25.850Z,16.70
2022-11-18T07:00:30.356Z,10.27
2022-11-18T07:03:33.398Z,11.82
2022-11-18T07:06:36.848Z,9.65
2022-11-18T07:09:39.216Z,12.80
2022-11-18T07:12:41.331Z,11.50
2022-11-18T07:15:43.383Z,12.70
2022-11-18T07:18:47.154Z,9.43
2022-11-18T07:21:49.272Z,11.85
2022-11-18T07:24:51.335Z,9.20
2022-11-18T07:27:53.530Z,14.07
2022-11-18T07:31:06.356Z,9.52
2022-11-18T07:34:08.595Z,14.52
2022-11-18T07:37:10.776Z,23.17
2022-11-18T07:40:12.834Z,22.40
2022-11-18T07:43:14.869Z,14.25
2022-11-18T07:46:21.561Z,18.30
2022-11-18T07:49:25.366Z,21.95
2022-11-18T07:52:27.595Z,19.15
2022-11-18T07:55:32.270Z,17.50
2022-11-18T07:58:36.196Z,14.18
2022-11-18T08:01:38.528Z,19.20
2022-11-18T08:04:41.011Z,20.08
2022-11-18T08:07:43.258Z,24.02
2022-11-18T08:10:45.409Z,13.93
2022-11-18T08:13:47.541Z,16.60
2022-11-18T08:16:50.104Z,11.27
2022-11-18T08:19:52.176Z,9.82
2022-11-18T08:22:54.259Z,11.88
2022-11-18T08:26:03.049Z,11.48
2022-11-18T08:29:05.538Z,8.27
2022-11-18T08:32:07.740Z,9.48
2022-11-18T08:35:11.479Z,8.45
2022-11-18T08:38:13.683Z,9.00
2022-11-18T08:41:29.782Z,12.93
2022-11-18T08:44:34.719Z,6.93
2022-11-18T08:47:37.964Z,7.40
2022-11-18T08:50:39.964Z,6.72
2022-11-18T08:53:42.617Z,14.75
2022-11-18T08:56:44.722Z,9.30
2022-11-18T08:59:46.979Z,11.98
2022-11-18T09:02:49.172Z,13.48
2022-11-18T09:05:51.399Z,8.10
2022-11-18T09:08:54.290Z,10.25
2022-11-18T09:11:56.544Z,21.05
2022-11-18T09:15:15.106Z,12.30
2022-11-18T09:21:19.974Z,12.80
2022-11-18T09:24:22.229Z,13.57
2022-11-18T09:27:27.467Z,13.98
2022-11-18T09:30:31.425Z,12.98
2022-11-18T09:33:33.882Z,14.93
2022-11-18T09:36:36.197Z,18.77
2022-11-18T09:39:39.352Z,20.90
2022-11-18T09:43:10.837Z,16.65
2022-11-18T09:46:51.512Z,16.77
2022-11-18T09:50:26.665Z,17.98
2022-11-18T09:53:47.547Z,17.00
2022-11-18T09:56:52.102Z,16.67
2022-11-18T09:59:54.946Z,12.60
2022-11-18T10:03:10.679Z,12.25
2022-11-18T10:06:27.807Z,17.98
2022-11-18T10:09:42.065Z,16.35
2022-11-18T10:12:57.393Z,11.82
2022-11-18T10:16:13.906Z,12.20
2022-11-18T10:19:44.409Z,21.95
2022-11-18T10:23:22.717Z,17.92
2022-11-18T10:26:58.317Z,12.73
2022-11-18T10:30:14.033Z,19.67
2022-11-18T10:33:25.211Z,17.52
2022-11-18T10:36:34.974Z,15.40
2022-11-18T10:39:59.419Z,13.30
2022-11-18T10:43:01.550Z,16.25
2022-11-18T10:46:27.931Z,19.05
2022-11-18T10:49:39.248Z,15.95
2022-11-18T10:52:53.569Z,19.35
2022-11-18T10:56:08.079Z,14.15
2022-11-18T10:59:38.711Z,18.38
2022-11-18T11:05:43.177Z,16.52
2022-11-18T11:09:07.847Z,13.77
2022-11-18T11:12:19.258Z,19.60
2022-11-18T11:15:46.382Z,13.90
2022-11-18T11:18:55.424Z,19.75
2022-11-18T11:21:57.951Z,17.90
2022-11-18T11:25:01.106Z,21.40
2022-11-18T11:28:31.170Z,20.10
2022-11-18T11:31:46.708Z,20.17
2022-11-18T11:34:57.541Z,30.63
2022-11-18T11:38:17.399Z,23.08
2022-11-18T11:41:23.183Z,16.67
2022-11-18T11:44:40.085Z,23.45
2022-11-18T11:47:57.326Z,31.75
2022-11-18T11:51:06.472Z,38.47
2022-11-18T11:54:21.315Z,34.00
2022-11-18T11:57:29.059Z,28.58
2022-11-18T12:00:40.783Z,18.93
2022-11-18T12:03:52.377Z,19.42
2022-11-18T12:06:56.461Z,22.23
2022-11-18T12:10:20.814Z,18.27
2022-11-18T12:13:56.095Z,17.05
2022-11-18T12:17:22.776Z,21.52
2022-11-18T12:20:47.236Z,13.93
2022-11-18T12:24:27.453Z,16.08
2022-11-18T12:27:32.594Z,21.20
2022-11-18T12:30:36.639Z,28.83
2022-11-18T12:33:55.789Z,25.88
2022-11-18T12:40:01.261Z,18.35
2022-11-18T12:43:43.477Z,26.70
2022-11-18T12:46:50.723Z,23.02
2022-11-18T12:50:14.754Z,21.35
2022-11-18T12:53:33.351Z,24.42
2022-11-18T12:56:37.242Z,22.08
2022-11-18T12:59:39.398Z,24.60
2022-11-18T13:02:53.755Z,20.33
2022-11-18T13:06:04.359Z,21.80
2022-11-18T13:09:19.931Z,22.13
2022-11-18T13:12:29.355Z,20.60
2022-11-18T13:16:00.455Z,29.90
2022-11-18T13:19:02.596Z,25.92
2022-11-18T13:22:23.103Z,23.52
2022-11-18T13:25:26.447Z,22.73
2022-11-18T13:28:33.458Z,22.35
2022-11-18T13:32:00.644Z,28.38
2022-11-18T13:35:16.129Z,28.05
2022-11-18T13:38:28.400Z,28.77
2022-11-18T13:41:33.952Z,23.08
2022-11-18T13:44:38.072Z,26.52
2022-11-18T13:47:55.906Z,24.67
2022-11-18T13:51:00.747Z,25.38
2022-11-18T13:54:02.811Z,32.25
2022-11-18T13:57:05.029Z,25.13
2022-11-18T14:00:19.777Z,30.05
2022-11-18T14:03:30.103Z,29.63
2022-11-18T14:06:34.802Z,26.27
2022-11-18T14:09:36.899Z,27.83
2022-11-18T14:12:38.918Z,30.45
2022-11-18T14:15:44.055Z,29.02
2022-11-18T14:18:48.790Z,27.33
2022-11-18T14:21:50.941Z,32.25
2022-11-18T14:25:01.876Z,25.35
2022-11-18T14:28:17.836Z,31.25
2022-11-18T14:31:19.747Z,27.85
2022-11-18T14:34:26.701Z,34.70
2022-11-18T14:37:32.259Z,26.70
2022-11-18T14:40:34.527Z,24.98
2022-11-18T14:43:36.604Z,35.92
2022-11-18T14:46:39.287Z,24.35
2022-11-18T14:49:41.472Z,27.40
2022-11-18T14:52:43.540Z,26.98
2022-11-18T14:55:49.600Z,27.88
2022-11-18T14:58:52.337Z,28.38
2022-11-18T15:01:56.623Z,35.15
2022-11-18T15:05:00.632Z,28.85
2022-11-18T15:08:03.212Z,25.20
2022-11-18T15:11:05.278Z,24.67
2022-11-18T15:14:08.743Z,29.83
2022-11-18T15:17:13.202Z,23.52
2022-11-18T15:20:18.803Z,23.70
2022-11-18T15:23:23.495Z,28.10
2022-11-18T15:26:38.619Z,27.02
2022-11-18T15:29:40.631Z,20.90
2022-11-18T15:32:43.146Z,28.80
2022-11-18T15:35:45.104Z,23.17
2022-11-18T15:38:47.939Z,17.77
2022-11-18T15:41:50.111Z,21.92
2022-11-18T15:44:52.166Z,28.67
2022-11-18T15:47:54.216Z,22.17
2022-11-18T15:50:56.678Z,17.25
2022-11-18T15:53:58.713Z,17.30
2022-11-18T15:57:00.772Z,16.27
2022-11-18T16:00:04.700Z,27.85
2022-11-18T16:03:15.325Z,25.48
2022-11-18T16:06:17.704Z,22.40
2022-11-18T16:09:19.878Z,25.20
2022-11-18T16:12:40.824Z,18.13
2022-11-18T16:15:48.428Z,27.48
2022-11-18T16:18:54.599Z,18.25
2022-11-18T16:21:57.342Z,16.67
2022-11-18T16:24:59.529Z,27.85
2022-11-18T16:28:07.437Z,29.10
2022-11-18T16:31:42.151Z,19.20
2022-11-18T16:34:44.152Z,20.77
2022-11-18T16:37:46.174Z,15.65
2022-11-18T16:40:55.530Z,18.33
2022-11-18T16:44:00.989Z,21.92
2022-11-18T16:47:08.983Z,19.30
2022-11-18T16:50:16.719Z,24.05
2022-11-18T16:53:19.532Z,24.80
2022-11-18T16:56:23.821Z,19.15
2022-11-18T16:59:29.151Z,20.05
2022-11-18T17:02:31.243Z,20.20
2022-11-18T17:05:36.043Z,25.10
2022-11-18T17:08:38.298Z,22.95
2022-11-18T17:11:40.715Z,21.33
2022-11-18T17:14:43.048Z,29.48
2022-11-18T17:17:45.134Z,23.13
2022-11-18T17:20:47.488Z,26.95
2022-11-18T17:23:51.351Z,33.42
2022-11-18T17:26:53.616Z,26.02
2022-11-18T17:29:56.472Z,31.83
2022-11-18T17:33:04.335Z,34.58
2022-11-18T17:42:28.740Z,28.00
2022-11-18T17:45:31.872Z,30.13
2022-11-18T17:48:33.878Z,26.65
2022-11-18T17:51:37.541Z,37.28
2022-11-18T17:54:40.006Z,40.53
2022-11-18T17:57:44.874Z,29.05
2022-11-18T18:00:47.008Z,31.73
2022-11-18T18:03:49.307Z,24.95
2022-11-18T18:07:03.346Z,23.15
2022-11-18T18:10:08.005Z,24.02
2022-11-18T18:13:28.756Z,30.00
2022-11-18T18:16:40.322Z,35.45
2022-11-18T18:19:44.190Z,24.85
2022-11-18T18:22:49.424Z,30.45
2022-11-18T18:25:51.507Z,25.55
2022-11-18T18:28:53.744Z,32.58
2022-11-18T18:31:55.892Z,33.55
2022-11-18T18:34:57.925Z,37.63
2022-11-18T18:38:30.765Z,35.33
2022-11-18T18:49:24.727Z,25.67
2022-11-18T18:52:37.662Z,30.25
2022-11-18T18:55:45.140Z,34.85
2022-11-18T18:58:50.213Z,30.23
2022-11-18T19:01:55.158Z,41.65
2022-11-18T19:04:57.321Z,33.53
2022-11-18T19:08:00.717Z,32.35
2022-11-18T19:11:31.630Z,47.47
2022-11-18T19:14:40.231Z,34.95
2022-11-18T19:17:42.709Z,35.40
2022-11-18T19:20:45.535Z,43.90
2022-11-18T19:23:49.981Z,32.65
2022-11-18T19:26:54.414Z,37.08
2022-11-18T19:29:59.297Z,42.15
2022-11-18T19:33:01.373Z,31.80
2022-11-18T19:36:05.172Z,57.75
2022-11-18T19:39:07.350Z,56.22
2022-11-18T19:42:11.203Z,96.97
2022-11-18T19:45:14.960Z,36.58
2022-11-18T19:48:17.119Z,56.17
2022-11-18T19:51:19.151Z,61.05
2022-11-18T19:54:21.255Z,35.28
2022-11-18T19:57:25.436Z,32.45
2022-11-18T20:00:27.469Z,35.88
2022-11-18T20:04:05.802Z,25.48
2022-11-18T20:07:08.038Z,23.17
2022-11-18T20:10:10.620Z,21.98
2022-11-18T20:13:13.599Z,34.42
2022-11-18T20:16:19.417Z,22.75
2022-11-18T20:19:21.566Z,30.15
2022-11-18T20:22:23.861Z,22.15
2022-11-18T20:25:25.861Z,26.63
2022-11-18T20:28:27.782Z,25.23
2022-11-18T20:31:30.289Z,24.40
2022-11-18T20:34:35.077Z,24.00
2022-11-18T20:37:37.141Z,28.52
2022-11-18T20:40:39.089Z,24.70
2022-11-18T20:43:41.187Z,25.48
2022-11-18T20:46:43.619Z,22.33
2022-11-18T20:49:45.779Z,31.42
2022-11-18T20:52:47.766Z,25.73
2022-11-18T20:55:50.189Z,25.42
2022-11-18T20:58:52.532Z,22.17
2022-11-18T21:01:55.687Z,25.27
2022-11-18T21:04:58.065Z,33.90
2022-11-18T21:08:00.425Z,23.58
2022-11-18T21:11:04.145Z,25.80
2022-11-18T21:14:24.447Z,31.58
2022-11-18T21:17:26.916Z,27.00
2022-11-18T21:20:47.408Z,22.77
2022-11-18T21:23:49.527Z,27.95
2022-11-18T21:26:58.014Z,23.77
2022-11-18T21:30:00.155Z,31.85
2022-11-18T21:33:02.359Z,25.60
2022-11-18T21:36:04.936Z,28.88
2022-11-18T21:39:07.462Z,28.88
2022-11-18T21:42:09.361Z,26.42
2022-11-18T21:45:11.675Z,33.72
2022-11-18T21:48:13.786Z,28.40
2022-11-18T21:51:18.718Z,34.15
2022-11-18T21:54:20.877Z,31.33
2022-11-18T21:57:23.334Z,28.65
2022-11-18T22:00:25.375Z,26.20
2022-11-18T22:03:27.412Z,26.30
2022-11-18T22:06:32.849Z,27.38
2022-11-18T22:09:36.955Z,24.23
2022-11-18T22:12:40.603Z,27.35
2022-11-18T22:15:42.961Z,36.08
2022-11-18T22:18:50.334Z,26.88
2022-11-18T22:21:55.309Z,32.72
2022-11-18T22:24:57.477Z,26.73
2022-11-18T22:27:59.491Z,32.50
2022-11-18T22:31:03.983Z,25.38
2022-11-18T22:34:06.284Z,30.05
2022-11-18T22:37:08.752Z,26.70
2022-11-18T22:40:11.311Z,24.42
2022-11-18T22:43:13.291Z,20.05
2022-11-18T22:46:15.290Z,23.55
2022-11-18T22:49:17.720Z,26.17
2022-11-18T22:52:20.040Z,28.20
2022-11-18T22:55:22.385Z,26.40
2022-11-18T22:58:24.367Z,23.70
2022-11-18T23:01:26.365Z,25.70
2022-11-18T23:04:28.334Z,27.73
2022-11-18T23:07:30.354Z,26.63
2022-11-18T23:10:32.631Z,24.50
2022-11-18T23:13:56.080Z,29.23
2022-11-18T23:16:58.006Z,27.50
2022-11-18T23:20:00.083Z,22.13
2022-11-18T23:23:02.048Z,28.23
2022-11-18T23:26:10.164Z,21.98
2022-11-18T23:29:13.884Z,19.30
2022-11-18T23:32:15.949Z,19.67
2022-11-18T23:35:18.058Z,19.85
2022-11-18T23:38:20.050Z,18.75
2022-11-18T23:41:23.794Z,19.40
2022-11-18T23:44:45.253Z,20.45
2022-11-18T23:47:47.202Z,18.15
2022-11-18T23:50:56.145Z,21.95
2022-11-18T23:53:58.140Z,24.23
2022-11-18T23:57:00.253Z,21.13
